Time;durP1;ratioP1;P1;durP2;ratioP2;P2;SDS_P1;SDS_P2;PMS_P1;PMS_P2;Temp;Humidity;BMP_temperature;BMP_pressure;BME280_temperature;BME280_humidity;BME280_pressure;Samples;Min_cycle;Max_cycle;Signal;HPM_P1;HPM_P2
2022/08/09 00:01:58;;;;;;;8.98;5.45;;;;;;;16.15;83.72;102612.47;5069873;28;20456;-83
2022/08/09 00:04:24;;;;;;;9.10;5.93;;;;;;;16.09;83.76;102615.53;5072479;28;20024;-83
2022/08/09 00:06:49;;;;;;;10.63;5.65;;;;;;;16.14;83.44;102610.75;5070828;28;20363;-83
2022/08/09 00:09:16;;;;;;;10.32;5.80;;;;;;;16.03;84.05;102617.78;5070971;28;20024;-83
2022/08/09 00:11:43;;;;;;;10.23;6.13;;;;;;;15.98;84.05;102616.25;5072412;28;20432;-83
2022/08/09 00:14:08;;;;;;;9.52;5.63;;;;;;;16.06;84.01;102610.44;5071530;28;20512;-83
2022/08/09 00:16:34;;;;;;;7.93;5.80;;;;;;;15.93;84.34;102609.56;5070214;28;20024;-83
2022/08/09 00:18:59;;;;;;;9.02;5.50;;;;;;;15.98;84.24;102607.44;5071387;28;20024;-82
2022/08/09 00:21:25;;;;;;;9.02;5.90;;;;;;;15.96;84.47;102609.34;5072017;28;20033;-73
2022/08/09 00:23:50;;;;;;;7.75;5.63;;;;;;;15.96;84.51;102601.41;5071478;28;20028;-83
2022/08/09 00:26:16;;;;;;;7.85;5.72;;;;;;;15.94;84.35;102603.31;5071291;28;20103;-83
2022/08/09 00:28:41;;;;;;;6.93;5.90;;;;;;;15.92;84.33;102611.38;5071200;28;20056;-82
2022/08/09 00:31:07;;;;;;;9.27;5.75;;;;;;;15.96;84.12;102606.69;5070694;28;20032;-83
2022/08/09 00:33:34;;;;;;;6.28;5.68;;;;;;;15.92;84.48;102602.56;5074035;28;20050;-83
2022/08/09 00:35:59;;;;;;;6.80;5.43;;;;;;;15.94;84.00;102608.63;5069608;28;20482;-83
2022/08/09 00:38:25;;;;;;;8.27;5.93;;;;;;;15.90;84.15;102607.13;5070759;28;20020;-82
2022/08/09 00:40:51;;;;;;;10.65;5.45;;;;;;;15.91;84.20;102599.06;5069339;28;20068;-84
2022/08/09 00:43:16;;;;;;;7.28;5.32;;;;;;;15.92;83.88;102611.38;5048551;28;20108;-73
2022/08/09 00:45:42;;;;;;;6.75;5.63;;;;;;;15.93;83.96;102609.56;5051504;28;20115;-73
2022/08/09 00:48:07;;;;;;;9.75;5.97;;;;;;;15.92;84.06;102605.22;5082687;28;20021;-73
2022/08/09 00:50:33;;;;;;;8.43;5.40;;;;;;;15.87;83.74;102604.69;5050841;28;20021;-73
2022/08/09 00:52:59;;;;;;;8.13;5.80;;;;;;;15.89;83.86;102600.97;5050500;28;20074;-73
2022/08/09 00:55:24;;;;;;;5.93;5.05;;;;;;;15.90;83.64;102605.31;5051082;28;20025;-73
2022/08/09 00:57:49;;;;;;;7.70;5.60;;;;;;;15.87;83.66;102607.34;5050686;28;20025;-73
2022/08/09 01:00:16;;;;;;;8.13;5.38;;;;;;;15.90;83.71;102604.47;5064173;28;20028;-83
2022/08/09 01:03:18;;;;;;;7.65;4.97;;;;;;;15.93;83.11;102612.22;5070981;28;20410;-83
2022/08/09 01:06:04;;;;;;;10.70;5.32;;;;;;;15.86;83.70;102602.97;5072083;28;20035;-83
2022/08/09 01:08:52;;;;;;;7.60;5.22;;;;;;;15.82;83.61;102605.00;5071863;28;20034;-83
2022/08/09 01:11:50;;;;;;;5.75;5.15;;;;;;;15.86;83.37;102602.97;5071197;28;20062;-83
2022/08/09 01:14:34;;;;;;;7.57;5.22;;;;;;;15.82;83.69;102612.13;5071030;28;20536;-74
2022/08/09 01:17:08;;;;;;;8.20;5.00;;;;;;;15.84;83.54;102607.56;5069990;28;20031;-73
2022/08/09 01:19:41;;;;;;;7.57;5.15;;;;;;;15.84;83.79;102608.41;5069079;28;20016;-73
2022/08/09 01:22:35;;;;;;;7.50;5.18;;;;;;;15.84;83.35;102612.84;5071837;28;20029;-83
2022/08/09 01:25:15;;;;;;;7.78;5.13;;;;;;;15.81;83.74;102607.75;5070912;28;20069;-73
2022/08/09 01:27:48;;;;;;;6.10;5.40;;;;;;;15.74;83.91;102617.94;5069742;28;20020;-84
2022/08/09 01:30:15;;;;;;;7.10;5.10;;;;;;;15.66;84.01;102615.81;5070606;28;20040;-74
2022/08/09 01:32:47;;;;;;;6.50;5.30;;;;;;;15.64;83.54;102607.09;5069967;28;20021;-83
2022/08/09 01:35:19;;;;;;;7.53;5.20;;;;;;;15.69;83.45;102606.78;5069543;28;20852;-83
2022/08/09 01:37:46;;;;;;;6.65;5.22;;;;;;;15.68;84.28;102606.91;5071084;28;20020;-83
2022/08/09 01:40:15;;;;;;;5.32;4.50;;;;;;;15.61;83.90;102603.81;5068737;28;20062;-75
2022/08/09 01:42:42;;;;;;;6.93;5.05;;;;;;;15.55;83.75;102602.34;5070765;28;20028;-74
2022/08/09 01:45:09;;;;;;;7.40;4.95;;;;;;;15.50;83.73;102601.81;5069567;28;20063;-83
2022/08/09 01:47:36;;;;;;;8.05;5.30;;;;;;;15.46;83.73;102602.13;5069414;28;20040;-83
2022/08/09 01:50:03;;;;;;;8.02;5.38;;;;;;;15.41;83.70;102605.09;5072082;28;20022;-83
2022/08/09 01:52:29;;;;;;;7.00;5.32;;;;;;;15.35;84.41;102605.50;5071418;28;20083;-83
2022/08/09 01:54:56;;;;;;;7.90;5.60;;;;;;;15.28;84.70;102602.41;5068438;28;20028;-83
2022/08/09 01:57:36;;;;;;;7.40;5.45;;;;;;;15.33;84.61;102615.38;5071667;28;20051;-83
2022/08/09 02:00:05;;;;;;;7.22;5.45;;;;;;;15.21;85.03;102610.84;5071369;28;20501;-83
2022/08/09 02:02:34;;;;;;;7.07;5.50;;;;;;;15.24;84.77;102616.81;5068886;28;20067;-83
2022/08/09 02:05:05;;;;;;;8.70;5.55;;;;;;;15.13;85.87;102615.78;5070217;28;20024;-83
2022/08/09 02:07:35;;;;;;;8.65;5.70;;;;;;;15.21;85.57;102621.44;5069702;28;20303;-83
2022/08/09 02:10:06;;;;;;;8.18;6.22;;;;;;;15.11;85.91;102617.69;5051946;28;20503;-83
2022/08/09 02:12:33;;;;;;;7.70;5.88;;;;;;;15.11;85.83;102617.69;5072073;28;20062;-83
2022/08/09 02:15:01;;;;;;;6.75;6.05;;;;;;;15.10;85.89;102623.94;5073528;28;20482;-73
2022/08/09 02:17:30;;;;;;;7.60;5.38;;;;;;;15.02;86.01;102627.09;5074299;28;20029;-74
2022/08/09 02:19:56;;;;;;;9.60;5.60;;;;;;;15.04;86.18;102627.84;5072350;28;20028;-73
2022/08/09 02:22:41;;;;;;;6.45;5.30;;;;;;;15.02;86.28;102619.16;5072142;28;20615;-74
2022/08/09 02:25:14;;;;;;;6.53;5.32;;;;;;;14.92;86.52;102615.41;5073241;28;20424;-73
2022/08/09 02:27:49;;;;;;;7.43;5.25;;;;;;;14.89;86.65;102619.09;5073968;28;20059;-74
2022/08/09 02:30:16;;;;;;;7.63;5.60;;;;;;;14.82;86.66;102604.53;5072687;28;20414;-74
2022/08/09 02:32:44;;;;;;;7.25;5.47;;;;;;;14.89;86.72;102616.44;5073807;28;20690;-73
2022/08/09 02:35:17;;;;;;;9.57;5.75;;;;;;;14.84;87.15;102615.03;5072653;28;20482;-74
2022/08/09 02:37:46;;;;;;;8.23;6.00;;;;;;;14.75;87.32;102613.81;5073250;28;20020;-74
2022/08/09 02:40:16;;;;;;;9.07;5.38;;;;;;;14.78;87.00;102605.66;5072792;28;20584;-83
2022/08/09 02:42:45;;;;;;;8.50;5.60;;;;;;;14.84;87.00;102604.44;5072868;28;20025;-83
2022/08/09 02:45:13;;;;;;;10.85;6.35;;;;;;;14.78;87.42;102608.31;5072461;28;20517;-84
2022/08/09 02:47:41;;;;;;;8.07;5.75;;;;;;;14.74;87.83;102610.28;5053195;28;20440;-85
2022/08/09 02:50:12;;;;;;;7.50;5.60;;;;;;;14.82;87.56;102601.88;5052145;28;20549;-85
2022/08/09 02:52:46;;;;;;;7.55;5.70;;;;;;;14.81;87.36;102601.97;5053229;28;20028;-83
2022/08/09 02:55:12;;;;;;;6.65;5.95;;;;;;;14.79;87.32;102607.34;5052608;28;20029;-83
2022/08/09 02:57:39;;;;;;;6.95;5.63;;;;;;;14.83;87.15;102606.25;5052866;28;20474;-83
2022/08/09 03:00:09;;;;;;;10.10;6.00;;;;;;;14.79;86.95;102603.84;5064420;28;20066;-82
2022/08/09 03:02:41;;;;;;;7.57;5.82;;;;;;;14.73;87.04;102605.09;5073068;28;20024;-83
2022/08/09 03:05:11;;;;;;;11.90;6.20;;;;;;;14.78;87.23;102604.81;5071517;28;20095;-82
2022/08/09 03:07:38;;;;;;;6.88;5.28;;;;;;;14.80;87.02;102605.56;5073298;28;20536;-83
2022/08/09 03:10:04;;;;;;;8.80;6.28;;;;;;;14.69;87.80;102600.94;5072619;28;20032;-83
2022/08/09 03:12:33;;;;;;;7.78;6.38;;;;;;;14.67;87.91;102608.13;5072326;28;20040;-83
2022/08/09 03:15:00;;;;;;;8.18;6.22;;;;;;;14.70;87.55;102600.84;5071329;28;20099;-83
2022/08/09 03:17:27;;;;;;;11.35;6.90;;;;;;;14.58;88.41;102603.44;5073189;28;20036;-83
2022/08/09 03:19:56;;;;;;;7.50;6.72;;;;;;;14.57;88.43;102607.03;5072125;28;20056;-84
2022/08/09 03:22:23;;;;;;;7.18;6.47;;;;;;;14.53;88.49;102603.72;5073353;28;20482;-83
2022/08/09 03:24:48;;;;;;;8.70;6.90;;;;;;;14.56;88.22;102602.69;5073888;28;20024;-73
2022/08/09 03:27:14;;;;;;;7.05;6.10;;;;;;;14.61;87.87;102604.09;5072436;28;20024;-83
2022/08/09 03:29:41;;;;;;;10.23;6.50;;;;;;;14.62;88.13;102602.28;5073157;28;20094;-83
2022/08/09 03:32:07;;;;;;;8.00;6.60;;;;;;;14.53;88.69;102605.50;5071992;28;20031;-83
2022/08/09 03:34:33;;;;;;;7.00;6.05;;;;;;;14.57;87.72;102604.38;5072643;28;20023;-83
2022/08/09 03:36:58;;;;;;;7.43;6.55;;;;;;;14.54;87.71;102609.88;5073046;28;20414;-83
2022/08/09 03:39:24;;;;;;;9.88;6.32;;;;;;;14.51;87.47;102608.25;5070487;28;20054;-82
2022/08/09 03:41:50;;;;;;;6.80;6.15;;;;;;;14.53;87.81;102610.81;5072862;28;20448;-83
2022/08/09 03:44:16;;;;;;;7.95;6.40;;;;;;;14.47;87.95;102612.06;5072037;28;20024;-83
2022/08/09 03:46:42;;;;;;;8.18;6.18;;;;;;;14.50;87.50;102611.00;5070864;28;20082;-83
2022/08/09 03:49:08;;;;;;;9.15;6.97;;;;;;;14.41;88.07;102607.97;5071925;28;20031;-83
2022/08/09 03:51:37;;;;;;;8.18;6.55;;;;;;;14.37;88.20;102610.88;5071274;28;20386;-82
2022/08/09 03:54:02;;;;;;;7.75;7.00;;;;;;;14.31;88.56;102611.25;5071325;28;20024;-83
2022/08/09 03:56:28;;;;;;;7.22;6.53;;;;;;;14.30;88.73;102612.19;5072055;28;20386;-83
2022/08/09 03:58:53;;;;;;;9.70;7.10;;;;;;;14.25;88.73;102611.63;5070804;28;20081;-83
2022/08/09 04:01:19;;;;;;;8.52;6.40;;;;;;;14.21;88.73;102618.91;5071450;28;20032;-83
2022/08/09 04:03:45;;;;;;;10.20;7.15;;;;;;;14.19;88.86;102612.84;5071969;28;20074;-83
2022/08/09 04:06:10;;;;;;;7.25;6.55;;;;;;;14.25;88.30;102612.47;5072252;28;20020;-83
2022/08/09 04:08:36;;;;;;;8.05;6.75;;;;;;;14.13;89.13;102604.44;5071650;28;20067;-83
2022/08/09 04:11:01;;;;;;;9.15;6.90;;;;;;;14.14;88.87;102604.34;5070334;28;20496;-84
2022/08/09 04:13:27;;;;;;;8.73;7.35;;;;;;;14.07;89.66;102603.03;5072035;28;20069;-83
2022/08/09 04:15:52;;;;;;;10.30;7.40;;;;;;;14.07;89.43;102603.88;5072546;28;20025;-83
2022/08/09 04:18:18;;;;;;;8.30;7.00;;;;;;;14.02;89.26;102605.09;5072073;28;20024;-83
2022/08/09 04:20:46;;;;;;;12.25;7.68;;;;;;;14.01;90.14;102603.41;5072971;28;20409;-83
2022/08/09 04:23:12;;;;;;;9.80;7.20;;;;;;;13.98;89.90;102598.25;5070909;28;20783;-84
2022/08/09 04:25:38;;;;;;;8.27;7.43;;;;;;;13.98;90.56;102608.84;5070450;28;20074;-83
2022/08/09 04:28:03;;;;;;;9.85;7.90;;;;;;;13.98;90.38;102616.78;5069305;28;20042;-83
2022/08/09 04:30:29;;;;;;;8.82;7.55;;;;;;;13.96;90.38;102622.16;5070392;28;20082;-83
2022/08/09 04:32:54;;;;;;;11.93;8.30;;;;;;;14.04;90.74;102624.38;5071229;28;20505;-83
2022/08/09 04:35:19;;;;;;;8.68;7.45;;;;;;;14.02;90.67;102620.97;5068925;28;20034;-83
2022/08/09 04:37:45;;;;;;;9.25;7.13;;;;;;;14.07;90.57;102630.34;5071586;28;20030;-83
2022/08/09 04:40:11;;;;;;;9.82;7.32;;;;;;;14.04;90.69;102629.69;5070459;28;20052;-83
2022/08/09 04:42:37;;;;;;;11.25;8.20;;;;;;;14.01;90.57;102629.88;5071009;28;20027;-83
2022/08/09 04:45:03;;;;;;;9.05;7.68;;;;;;;14.07;90.30;102632.13;5070837;28;20021;-83
2022/08/09 04:47:29;;;;;;;9.18;7.90;;;;;;;14.04;90.96;102625.22;5070255;28;20032;-83
2022/08/09 04:49:54;;;;;;;11.05;7.85;;;;;;;14.02;91.41;102636.84;5070532;28;20032;-84
2022/08/09 04:52:24;;;;;;;10.75;7.60;;;;;;;14.04;90.89;102629.69;5072435;28;20025;-73
2022/08/09 04:54:52;;;;;;;10.68;8.10;;;;;;;14.04;91.12;102634.97;5072275;28;20052;-84
2022/08/09 04:57:18;;;;;;;8.82;7.88;;;;;;;14.08;91.11;102636.50;5071765;28;20101;-73
2022/08/09 04:59:44;;;;;;;11.73;8.65;;;;;;;14.15;91.68;102629.03;5072231;28;20027;-83
2022/08/09 05:02:09;;;;;;;16.65;8.77;;;;;;;14.18;91.34;102637.63;5070526;28;20453;-83
2022/08/09 05:04:35;;;;;;;12.18;9.05;;;;;;;14.14;92.24;102643.19;5071492;28;20028;-73
2022/08/09 05:07:00;;;;;;;13.10;8.70;;;;;;;14.20;91.67;102648.13;5071564;28;20524;-83
2022/08/09 05:09:27;;;;;;;10.55;8.60;;;;;;;14.25;92.20;102652.19;5071383;28;20114;-83
2022/08/09 05:11:53;;;;;;;9.82;8.82;;;;;;;14.25;91.71;102657.50;5070125;28;20068;-83
2022/08/09 05:14:18;;;;;;;11.43;9.23;;;;;;;14.30;92.19;102652.75;5070894;28;20493;-82
2022/08/09 05:16:44;;;;;;;13.40;9.50;;;;;;;14.33;92.56;102652.56;5069711;28;20394;-83
2022/08/09 05:19:09;;;;;;;10.15;9.15;;;;;;;14.35;92.87;102650.69;5069585;28;20036;-83
2022/08/09 05:21:34;;;;;;;13.10;9.52;;;;;;;14.36;92.84;102641.78;5071022;28;20504;-83
2022/08/09 05:24:00;;;;;;;13.10;10.65;;;;;;;14.36;93.19;102651.53;5070137;28;20118;-85
2022/08/09 05:26:25;;;;;;;11.38;10.02;;;;;;;14.38;93.70;102649.63;5068946;28;20660;-85
2022/08/09 05:28:51;;;;;;;11.05;9.73;;;;;;;14.41;93.57;102645.03;5070849;28;20456;-83
2022/08/09 05:31:16;;;;;;;11.80;9.90;;;;;;;14.46;93.49;102643.94;5101826;28;20066;-84
2022/08/09 05:33:41;;;;;;;12.48;10.10;;;;;;;14.53;93.35;102647.91;5069412;28;20112;-83
2022/08/09 05:36:07;;;;;;;13.07;9.80;;;;;;;14.57;93.44;102644.97;5070299;28;20029;-73
2022/08/09 05:38:32;;;;;;;17.48;11.05;;;;;;;14.65;93.16;102647.13;5070405;28;20051;-83
2022/08/09 05:40:58;;;;;;;13.38;10.32;;;;;;;14.70;92.89;102653.00;5067510;28;20517;-83
2022/08/09 05:43:23;;;;;;;13.00;10.07;;;;;;;14.76;93.16;102655.25;5052431;28;20430;-83
2022/08/09 05:45:49;;;;;;;13.80;10.93;;;;;;;14.83;93.03;102656.59;5050335;28;20025;-84
2022/08/09 05:48:14;;;;;;;13.25;11.05;;;;;;;14.88;93.29;102656.31;5048429;28;20119;-83
2022/08/09 05:50:42;;;;;;;11.00;9.95;;;;;;;14.95;92.79;102660.25;5050766;28;20390;-83
2022/08/09 05:53:09;;;;;;;13.32;10.95;;;;;;;14.97;92.52;102653.91;5049501;28;20025;-83
2022/08/09 05:55:34;;;;;;;12.45;10.63;;;;;;;15.02;92.55;102662.41;5050622;28;20160;-83
2022/08/09 05:58:00;;;;;;;12.48;10.77;;;;;;;15.10;92.21;102661.06;5049884;28;20104;-83
2022/08/09 06:00:27;;;;;;;12.68;10.23;;;;;;;15.13;92.18;102661.72;5064961;28;20059;-84
2022/08/09 06:02:55;;;;;;;11.07;9.63;;;;;;;15.25;92.43;102668.06;5070157;28;20047;-83
2022/08/09 06:05:20;;;;;;;14.32;10.98;;;;;;;15.29;91.90;102675.72;5070615;28;20088;-83
2022/08/09 06:07:46;;;;;;;12.82;10.30;;;;;;;15.35;91.89;102664.72;5070045;28;20048;-82
2022/08/09 06:10:14;;;;;;;11.93;10.80;;;;;;;15.39;91.46;102667.16;5068440;28;20474;-83
2022/08/09 06:12:40;;;;;;;13.23;11.10;;;;;;;15.46;91.63;102671.97;5070438;28;20027;-83
2022/08/09 06:15:06;;;;;;;14.50;10.73;;;;;;;15.50;90.88;102670.81;5069211;28;20023;-83
2022/08/09 06:17:32;;;;;;;14.43;10.98;;;;;;;15.60;91.47;102679.03;5070459;28;20032;-82
2022/08/09 06:19:57;;;;;;;13.73;10.65;;;;;;;15.68;91.21;102675.91;5069572;28;20532;-83
2022/08/09 06:22:22;;;;;;;11.63;10.40;;;;;;;15.71;91.11;102681.00;5051986;28;20020;-82
2022/08/09 06:24:48;;;;;;;14.10;11.02;;;;;;;15.80;90.50;102680.38;5070644;28;20100;-83
2022/08/09 06:27:13;;;;;;;16.33;10.73;;;;;;;15.89;90.32;102679.75;5069664;28;20043;-83
2022/08/09 06:29:38;;;;;;;13.25;10.48;;;;;;;15.93;90.04;102682.09;5069666;28;20020;-83
2022/08/09 06:32:04;;;;;;;14.23;10.70;;;;;;;15.97;89.43;102682.75;5069658;28;20449;-85
2022/08/09 06:34:29;;;;;;;14.77;11.40;;;;;;;16.04;89.32;102677.91;5068969;28;20028;-85
2022/08/09 06:36:55;;;;;;;12.38;10.40;;;;;;;16.07;89.31;102683.84;5068681;28;20029;-85
2022/08/09 06:39:21;;;;;;;12.55;11.15;;;;;;;16.12;89.10;102686.19;5070177;28;20056;-84
2022/08/09 06:41:47;;;;;;;12.40;10.52;;;;;;;16.20;88.76;102690.00;5060873;28;20041;-83
2022/08/09 06:44:13;;;;;;;12.60;11.00;;;;;;;16.30;88.99;102680.44;5049449;28;20021;-83
2022/08/09 06:46:39;;;;;;;15.07;12.20;;;;;;;16.36;88.37;102683.63;5050087;28;20020;-83
2022/08/09 06:49:04;;;;;;;15.77;10.52;;;;;;;16.43;87.52;102679.63;5048775;28;20036;-83
2022/08/09 06:51:30;;;;;;;14.63;10.50;;;;;;;16.56;87.73;102681.31;5050133;28;20025;-83
2022/08/09 06:53:55;;;;;;;12.05;10.45;;;;;;;16.63;86.53;102676.41;5049534;28;20044;-83
2022/08/09 06:56:20;;;;;;;13.30;10.80;;;;;;;16.75;86.59;102686.19;5049283;28;20119;-83
2022/08/09 06:58:46;;;;;;;11.75;10.55;;;;;;;16.82;86.27;102687.50;5053554;28;20083;-83
2022/08/09 07:01:11;;;;;;;13.50;11.32;;;;;;;16.93;85.56;102694.69;5072540;28;20504;-84
2022/08/09 07:03:37;;;;;;;14.10;10.00;;;;;;;17.05;85.22;102687.63;5071627;28;20017;-84
2022/08/09 07:06:03;;;;;;;10.80;9.68;;;;;;;17.19;85.34;102692.81;5073331;28;20017;-84
2022/08/09 07:08:29;;;;;;;13.98;10.48;;;;;;;17.35;84.02;102696.06;5073950;28;20493;-84
2022/08/09 07:10:54;;;;;;;13.57;9.90;;;;;;;17.51;82.53;102693.13;5072554;28;20052;-84
2022/08/09 07:13:20;;;;;;;15.68;10.10;;;;;;;17.67;81.59;102699.06;5073221;28;20056;-83
2022/08/09 07:15:45;;;;;;;14.13;9.82;;;;;;;17.83;81.33;102702.25;5073597;28;20021;-83
2022/08/09 07:18:10;;;;;;;14.57;9.95;;;;;;;17.95;80.38;102707.63;5072657;28;20639;-83
2022/08/09 07:20:36;;;;;;;12.00;9.57;;;;;;;18.05;79.53;102696.19;5073933;28;20459;-82
2022/08/09 07:23:01;;;;;;;11.48;9.20;;;;;;;18.26;79.73;102688.34;5071865;28;20074;-83
2022/08/09 07:25:26;;;;;;;12.65;9.40;;;;;;;18.46;78.92;102690.31;5072547;28;20024;-82
2022/08/09 07:27:52;;;;;;;12.45;8.98;;;;;;;18.65;77.89;102694.22;5072953;28;20110;-82
2022/08/09 07:30:17;;;;;;;14.27;10.13;;;;;;;18.74;77.28;102682.81;5073038;28;20047;-84
2022/08/09 07:32:43;;;;;;;11.70;9.48;;;;;;;18.83;75.76;102692.78;5071881;28;20024;-84
2022/08/09 07:35:10;;;;;;;11.05;9.25;;;;;;;19.04;75.80;102692.88;5072343;28;20028;-83
2022/08/09 07:37:37;;;;;;;11.38;8.57;;;;;;;19.24;75.17;102697.47;5072829;28;20710;-84
2022/08/09 07:40:03;;;;;;;12.88;9.40;;;;;;;19.34;74.15;102693.06;5070042;28;20056;-84
2022/08/09 07:42:28;;;;;;;12.60;8.88;;;;;;;19.55;73.30;102692.28;5071505;28;20031;-84
2022/08/09 07:44:54;;;;;;;11.95;8.30;;;;;;;19.75;72.70;102691.50;5072020;28;20030;-84
2022/08/09 07:47:20;;;;;;;8.20;7.50;;;;;;;19.88;72.06;102692.16;5071520;28;20028;-83
2022/08/09 07:49:46;;;;;;;10.02;8.10;;;;;;;19.98;70.73;102687.72;5072632;28;20036;-74
2022/08/09 07:52:11;;;;;;;9.57;8.57;;;;;;;20.06;70.52;102683.59;5071983;28;20066;-74
2022/08/09 07:54:37;;;;;;;9.82;8.05;;;;;;;20.26;70.91;102685.38;5071723;28;20037;-82
2022/08/09 07:57:02;;;;;;;12.60;8.90;;;;;;;20.37;68.98;102692.47;5072685;28;20108;-82
2022/08/09 07:59:28;;;;;;;12.25;8.07;;;;;;;20.49;68.65;102696.81;5071609;28;20021;-74
2022/08/09 08:01:54;;;;;;;11.02;7.90;;;;;;;20.60;68.52;102689.53;5073544;28;20039;-82
2022/08/09 08:04:20;;;;;;;9.38;8.35;;;;;;;20.71;68.18;102690.44;5072297;28;20061;-82
2022/08/09 08:06:46;;;;;;;11.63;8.23;;;;;;;20.90;68.02;102701.22;5072123;28;20024;-83
2022/08/09 08:09:11;;;;;;;11.75;7.80;;;;;;;21.05;67.52;102704.34;5070675;28;20025;-73
2022/08/09 08:11:37;;;;;;;8.38;7.38;;;;;;;21.26;67.34;102700.66;5071938;28;20037;-73
2022/08/09 08:14:02;;;;;;;12.52;7.40;;;;;;;21.39;67.07;102697.69;5070735;28;20024;-75
2022/08/09 08:16:28;;;;;;;9.85;7.65;;;;;;;21.44;65.67;102700.81;5071895;28;20025;-73
2022/08/09 08:18:53;;;;;;;9.38;7.30;;;;;;;21.60;65.10;102700.25;5071468;28;20111;-73
2022/08/09 08:21:18;;;;;;;9.23;7.30;;;;;;;21.66;64.70;102701.53;5070628;28;20415;-74
2022/08/09 08:23:44;;;;;;;10.60;7.13;;;;;;;21.72;64.14;102699.16;5070246;28;20063;-73
2022/08/09 08:26:09;;;;;;;15.75;7.35;;;;;;;21.71;63.51;102692.09;5071365;28;20108;-83
2022/08/09 08:28:34;;;;;;;10.02;7.53;;;;;;;21.85;62.24;102699.69;5071168;28;20154;-73
2022/08/09 08:31:01;;;;;;;11.65;7.03;;;;;;;21.94;62.77;102697.16;5071216;28;20099;-73
2022/08/09 08:33:26;;;;;;;8.85;6.63;;;;;;;22.06;61.83;102696.06;5070445;28;20016;-83
2022/08/09 08:35:52;;;;;;;10.93;6.50;;;;;;;22.28;62.42;102689.50;5071029;28;20119;-74
2022/08/09 08:38:17;;;;;;;8.90;6.47;;;;;;;22.40;59.84;102691.84;5071293;28;20111;-73
2022/08/09 08:40:43;;;;;;;9.73;6.35;;;;;;;22.46;60.41;102693.13;5071544;28;20056;-73
2022/08/09 08:43:08;;;;;;;10.52;6.28;;;;;;;22.59;60.83;102695.47;5050358;28;20170;-83
2022/08/09 08:45:41;;;;;;;6.15;5.55;;;;;;;22.70;60.05;102689.91;5051852;28;20025;-84
2022/08/09 08:48:08;;;;;;;9.65;6.82;;;;;;;22.76;59.23;102695.53;5050530;28;20025;-84
2022/08/09 08:50:33;;;;;;;8.98;6.18;;;;;;;22.91;59.82;102684.34;5051749;28;20028;-85
2022/08/09 08:52:59;;;;;;;6.38;5.07;;;;;;;23.11;58.21;102692.13;5050984;28;20105;-84
2022/08/09 08:55:24;;;;;;;8.00;4.50;;;;;;;23.10;56.17;102687.75;5051002;28;20367;-83
2022/08/09 08:57:52;;;;;;;8.13;4.38;;;;;;;22.85;54.87;102683.13;5050278;28;20033;-83
2022/08/09 09:00:17;;;;;;;5.22;3.88;;;;;;;22.99;56.22;102690.66;5065016;28;20020;-84
2022/08/09 09:02:43;;;;;;;10.68;4.43;;;;;;;23.12;56.05;102696.50;5070671;28;20107;-84
2022/08/09 09:05:11;;;;;;;5.63;3.78;;;;;;;23.22;55.75;102698.31;5069506;28;20024;-84
2022/08/09 09:07:38;;;;;;;6.65;4.82;;;;;;;23.24;55.68;102705.22;5071172;28;20363;-84
2022/08/09 09:10:07;;;;;;;5.82;4.20;;;;;;;23.50;56.25;102705.31;5070351;28;20027;-84
2022/08/09 09:12:33;;;;;;;11.88;5.35;;;;;;;23.41;55.04;102706.25;5071299;28;20437;-84
2022/08/09 09:14:59;;;;;;;6.30;4.22;;;;;;;23.58;55.64;102709.94;5071033;28;20020;-84
2022/08/09 09:17:25;;;;;;;6.53;3.50;;;;;;;23.80;55.55;102711.34;5070470;28;20053;-84
2022/08/09 09:19:52;;;;;;;7.80;4.05;;;;;;;23.72;54.21;102704.91;5071215;28;20063;-84
2022/08/09 09:22:18;;;;;;;7.25;3.60;;;;;;;23.94;53.86;102708.09;5070943;28;20044;-84
2022/08/09 09:24:55;;;;;;;7.00;3.60;;;;;;;24.02;53.37;102713.56;5071453;28;20378;-83
2022/08/09 09:27:25;;;;;;;5.88;2.50;;;;;;;24.08;51.21;102710.25;5071827;28;20044;-83
2022/08/09 09:29:54;;;;;;;4.82;2.72;;;;;;;24.18;50.94;102707.44;5070696;28;20035;-83
2022/08/09 09:32:24;;;;;;;5.85;2.70;;;;;;;24.26;51.12;102702.97;5069547;28;20025;-73
2022/08/09 09:35:09;;;;;;;11.73;2.60;;;;;;;24.43;51.56;102708.50;5070815;28;20032;-82
2022/08/09 09:37:36;;;;;;;4.10;2.00;;;;;;;24.37;50.11;102705.41;5069876;28;20138;-82
2022/08/09 09:40:03;;;;;;;5.63;2.00;;;;;;;24.48;50.87;102698.09;5069398;28;20525;-82
2022/08/09 09:42:28;;;;;;;6.53;2.67;;;;;;;24.47;51.04;102699.09;5069462;28;20041;-82
2022/08/09 09:44:59;;;;;;;6.13;1.92;;;;;;;24.49;49.19;102697.09;5069760;28;20103;-82
2022/08/09 09:47:26;;;;;;;4.38;1.80;;;;;;;24.54;48.77;102694.75;5070925;28;20020;-82
2022/08/09 09:49:53;;;;;;;4.57;1.77;;;;;;;24.50;48.23;102690.69;5070296;28;20032;-82
2022/08/09 09:52:20;;;;;;;4.88;2.10;;;;;;;24.79;49.75;102690.31;5069768;28;20028;-82
2022/08/09 09:54:46;;;;;;;4.57;2.30;;;;;;;24.72;49.01;102695.50;5069137;28;20118;-82
2022/08/09 09:57:20;;;;;;;5.15;1.92;;;;;;;24.76;49.09;102698.72;5068609;28;20350;-73
2022/08/09 09:59:47;;;;;;;5.00;2.00;;;;;;;24.85;48.46;102692.38;5069702;28;20050;-83
2022/08/09 10:02:14;;;;;;;3.25;1.50;;;;;;;24.77;47.70;102687.78;5070426;28;20028;-82
2022/08/09 10:04:41;;;;;;;4.47;1.40;;;;;;;24.84;47.13;102691.53;5069005;28;20038;-82
2022/08/09 10:07:24;;;;;;;4.35;1.35;;;;;;;24.96;48.37;102692.09;5067985;28;20119;-82
2022/08/09 10:09:53;;;;;;;5.47;1.50;;;;;;;25.19;46.37;102690.47;5070508;28;20016;-82
2022/08/09 10:12:24;;;;;;;4.82;1.10;;;;;;;25.32;45.16;102700.81;5069735;28;20070;-81
2022/08/09 10:14:49;;;;;;;1.95;1.02;;;;;;;25.30;44.02;102694.75;5068216;28;20028;-83
2022/08/09 10:17:19;;;;;;;2.47;1.10;;;;;;;25.22;44.58;102709.06;5069625;28;20028;-83
2022/08/09 10:19:45;;;;;;;3.53;1.25;;;;;;;25.08;43.97;102698.03;5069628;28;20071;-82
2022/08/09 10:22:10;;;;;;;7.38;1.20;;;;;;;25.32;44.91;102706.19;5068235;28;20031;-82
2022/08/09 10:24:38;;;;;;;2.80;1.02;;;;;;;25.25;44.96;102681.78;5070180;28;20059;-82
2022/08/09 10:27:04;;;;;;;4.13;1.20;;;;;;;25.45;45.79;102690.38;5068092;28;20024;-82
2022/08/09 10:29:31;;;;;;;3.80;1.35;;;;;;;25.56;44.83;102695.44;5069205;28;20531;-82
2022/08/09 10:31:57;;;;;;;2.95;1.25;;;;;;;25.76;43.63;102692.47;5069609;28;20525;-82
2022/08/09 10:34:24;;;;;;;5.05;1.23;;;;;;;25.88;42.64;102685.72;5072606;28;20111;-83
2022/08/09 10:36:55;;;;;;;2.42;0.90;;;;;;;25.87;42.17;102681.31;5072818;28;20024;-82
2022/08/09 10:39:23;;;;;;;3.08;1.10;;;;;;;25.82;41.96;102686.38;5073673;28;20036;-81
2022/08/09 10:41:49;;;;;;;2.33;0.80;;;;;;;25.84;42.22;102681.66;5073411;28;20044;-82
2022/08/09 10:44:25;;;;;;;2.95;0.90;;;;;;;26.03;42.87;102684.03;5073384;28;20031;-82
2022/08/09 10:47:15;;;;;;;2.95;1.00;;;;;;;26.10;43.54;102682.34;5074040;28;20025;-82
2022/08/09 10:49:54;;;;;;;2.50;1.00;;;;;;;25.94;41.27;102668.84;5073118;28;20390;-83
2022/08/09 10:52:50;;;;;;;2.83;0.90;;;;;;;25.84;42.62;102679.81;5055979;28;20043;-83
2022/08/09 10:55:19;;;;;;;5.55;2.13;;;;;;;25.91;43.28;102664.63;5070872;28;20120;-82
2022/08/09 10:57:44;;;;;;;2.30;1.08;;;;;;;25.98;41.89;102670.19;5072779;28;20029;-75
2022/08/09 11:00:32;;;;;;;1.75;0.90;;;;;;;26.14;42.30;102663.94;5073138;28;20035;-83
2022/08/09 11:02:58;;;;;;;3.05;1.00;;;;;;;26.15;40.18;102665.63;5072755;28;20050;-83
2022/08/09 11:05:26;;;;;;;2.55;0.90;;;;;;;26.31;40.84;102664.72;5073731;28;20020;-76
2022/08/09 11:07:52;;;;;;;4.32;0.90;;;;;;;26.41;40.33;102657.31;5073612;28;20103;-76
2022/08/09 11:10:39;;;;;;;7.47;0.93;;;;;;;26.67;40.55;102659.75;5072738;28;20020;-83
2022/08/09 11:13:15;;;;;;;3.63;1.00;;;;;;;26.58;40.06;102656.25;5072953;28;20035;-75
2022/08/09 11:15:40;;;;;;;2.20;0.73;;;;;;;26.58;39.67;102661.66;5073199;28;20033;-82
2022/08/09 11:18:06;;;;;;;3.33;0.88;;;;;;;26.44;39.59;102657.00;5070587;28;20386;-83
2022/08/09 11:20:47;;;;;;;3.50;0.88;;;;;;;26.60;40.09;102669.56;5072550;28;20021;-73
2022/08/09 11:23:14;;;;;;;2.42;0.90;;;;;;;26.52;39.54;102667.75;5071861;28;20028;-74
2022/08/09 11:25:45;;;;;;;5.43;0.90;;;;;;;26.46;38.43;102663.91;5072937;28;20056;-82